This is the latest recevied weather packets stored in our database for station/object VE6KEE-13. If no packets are shown the sender has not sent any weather packets the latest 1 day(s).
| Time | Temp. | Humidity | Pressure | Rain* | Wind** | Luminosity | Snow |
|---|---|---|---|---|---|---|---|
| 1778110647 | 17.22° C | 17% | 1010 hPa | 0 mm | - | - | - |
| 1778109737 | 17.78° C | 17% | 1010.1 hPa | 0 mm | - | - | - |
| 1778108837 | 17.78° C | 17% | 1010.1 hPa | 0 mm | - | - | - |
| 1778103436 | 21.11° C | 13% | 1011.1 hPa | 0 mm | - | - | - |
| 1778102531 | 20° C | 13% | 1011.5 hPa | 0 mm | - | - | - |
| 1778092625 | 18.33° C | 16% | 1013.9 hPa | 0 mm | - | - | - |
| 1778091725 | 18.33° C | 15% | 1014.2 hPa | 0 mm | - | - | - |
| 1778090825 | 18.33° C | 15% | 1014.2 hPa | 0 mm | - | - | - |
| 1778083624 | 14.44° C | 24% | 1016.3 hPa | 0 mm | - | - | - |
| 1778077322 | 3.89° C | 42% | 1018.4 hPa | 0 mm | - | - | - |
| 1778073711 | -0.56° C | 48% | 1019.4 hPa | 0 mm | - | - | - |
| 1778072811 | -1.11° C | 48% | 1019.4 hPa | 0 mm | - | - | - |
| 1778071005 | -1.11° C | 48% | 1019.5 hPa | 0 mm | - | - | - |
| 1778068303 | -1.67° C | 50% | 1019.9 hPa | 0 mm | - | - | - |
| 1778066501 | -1.67° C | 49% | 1020 hPa | 0 mm | - | - | - |
| 1778064699 | -1.11° C | 47% | 1020.2 hPa | 0 mm | - | - | - |
| 1778057494 | 1.11° C | 42% | 1021.1 hPa | 0 mm | - | - | - |
| 1778056597 | 0.56° C | 42% | 1021.2 hPa | 0 mm | - | - | - |
| 1778055692 | 1.11° C | 42% | 1021.2 hPa | 0.25 mm | - | - | - |
| 1778054791 | 0.56° C | 43% | 1021.4 hPa | 0.25 mm | - | - | - |
| 1778053891 | 0.56° C | 43% | 1021.5 hPa | 0.25 mm | - | - | - |
| 1778052990 | 1.11° C | 43% | 1021.6 hPa | 0.25 mm | - | - | - |
| 1778052089 | 1.67° C | 41% | 1021.7 hPa | 0.25 mm | - | - | - |
| 1778051196 | 2.22° C | 40% | 1021.7 hPa | 0.25 mm | - | - | - |
| 1778050291 | 2.22° C | 38% | 1021.8 hPa | 0.25 mm | - | - | - |
* Rain since midnight (hover to see other rain measurements)
** Current wind speed in m/s (hover to see current wind gust speed)